createdAt,value
2022-09-07T00:00:39.027Z,57.54
2022-09-07T00:03:05.899Z,57.53
2022-09-07T00:05:32.886Z,58.10
2022-09-07T00:08:00.102Z,58.65
2022-09-07T00:10:26.820Z,58.48
2022-09-07T00:12:53.640Z,58.98
2022-09-07T00:15:20.377Z,58.26
2022-09-07T00:17:46.772Z,58.21
2022-09-07T00:20:13.227Z,57.65
2022-09-07T00:22:39.783Z,57.99
2022-09-07T00:25:06.647Z,57.37
2022-09-07T00:27:33.117Z,58.97
2022-09-07T00:30:00.830Z,59.39
2022-09-07T00:32:27.305Z,58.63
2022-09-07T00:34:53.870Z,58.51
2022-09-07T00:37:20.372Z,59.21
2022-09-07T00:39:47.064Z,60.95
2022-09-07T00:42:13.491Z,58.56
2022-09-07T00:44:42.841Z,59.10
2022-09-07T00:47:38.786Z,60.96
2022-09-07T00:50:16.287Z,58.83
2022-09-07T00:52:45.896Z,60.70
2022-09-07T00:55:16.049Z,58.90
2022-09-07T00:57:47.771Z,59.64
2022-09-07T01:00:14.428Z,59.76
2022-09-07T01:02:42.554Z,59.02
2022-09-07T01:05:31.846Z,60.05
2022-09-07T01:07:58.664Z,60.10
2022-09-07T01:10:26.552Z,59.93
2022-09-07T01:12:53.074Z,60.56
2022-09-07T01:15:22.574Z,60.73
2022-09-07T01:18:01.807Z,59.51
2022-09-07T01:20:40.042Z,60.32
2022-09-07T01:23:56.114Z,61.22
2022-09-07T01:26:47.361Z,60.94
2022-09-07T01:29:23.660Z,61.22
2022-09-07T01:32:16.836Z,60.40
2022-09-07T01:34:50.757Z,60.57
2022-09-07T01:37:40.595Z,59.77
2022-09-07T01:40:13.538Z,60.37
2022-09-07T01:42:56.151Z,58.91
2022-09-07T01:45:28.833Z,60.50
2022-09-07T01:48:04.056Z,59.57
2022-09-07T01:50:55.406Z,58.76
2022-09-07T01:53:28.081Z,60.37
2022-09-07T01:55:57.417Z,60.71
2022-09-07T01:58:50.747Z,58.39
2022-09-07T02:01:24.268Z,60.84
2022-09-07T02:04:17.339Z,61.22
2022-09-07T02:06:57.346Z,59.73
2022-09-07T02:09:46.016Z,60.97
2022-09-07T02:12:46.668Z,59.10
2022-09-07T02:15:37.139Z,61.75
2022-09-07T02:18:07.458Z,59.44
2022-09-07T02:20:39.282Z,60.55
2022-09-07T02:23:17.270Z,61.41
2022-09-07T02:25:48.789Z,61.47
2022-09-07T02:28:20.649Z,61.03
2022-09-07T02:30:47.219Z,62.16
2022-09-07T02:33:13.864Z,61.86
2022-09-07T02:35:40.871Z,59.68
2022-09-07T02:38:08.059Z,61.18
2022-09-07T02:40:34.851Z,61.26
2022-09-07T02:43:03.355Z,61.82
2022-09-07T02:45:46.444Z,61.84
2022-09-07T02:48:49.893Z,62.45
2022-09-07T02:51:33.889Z,62.28
2022-09-07T02:54:18.580Z,63.35
2022-09-07T02:56:59.005Z,62.98
2022-09-07T02:59:56.321Z,62.97
2022-09-07T03:02:53.731Z,63.07
2022-09-07T03:05:23.176Z,63.78
2022-09-07T03:08:01.356Z,63.51
2022-09-07T03:10:28.826Z,63.97
2022-09-07T03:12:55.308Z,63.81
2022-09-07T03:15:25.289Z,63.50
2022-09-07T03:17:52.530Z,62.02
2022-09-07T03:20:20.065Z,62.66
2022-09-07T03:22:48.239Z,61.81
2022-09-07T03:25:15.416Z,62.16
2022-09-07T03:27:41.979Z,62.88
2022-09-07T03:30:10.538Z,61.99
2022-09-07T03:32:38.531Z,61.57
2022-09-07T03:35:06.960Z,62.79
2022-09-07T03:37:36.299Z,63.15
2022-09-07T03:40:04.763Z,63.70
2022-09-07T03:42:31.279Z,63.34
2022-09-07T03:44:57.735Z,65.11
2022-09-07T03:47:24.292Z,64.51
2022-09-07T03:49:51.832Z,64.61
2022-09-07T03:52:18.581Z,65.90
2022-09-07T03:54:45.075Z,63.55
2022-09-07T03:57:11.851Z,64.73
2022-09-07T03:59:38.321Z,65.07
2022-09-07T04:02:05.125Z,64.99
2022-09-07T04:04:31.550Z,66.81
2022-09-07T04:06:58.018Z,66.33
2022-09-07T04:09:27.206Z,66.03
2022-09-07T04:11:53.716Z,65.24
2022-09-07T04:14:20.350Z,66.21
2022-09-07T04:16:47.036Z,65.78
2022-09-07T04:19:13.488Z,65.10
2022-09-07T04:21:40.011Z,65.31
2022-09-07T04:24:06.824Z,65.48
2022-09-07T04:26:34.249Z,65.68
2022-09-07T04:29:01.386Z,64.66
2022-09-07T04:31:28.020Z,64.57
2022-09-07T04:33:55.536Z,64.69
2022-09-07T04:36:24.817Z,66.47
2022-09-07T04:39:00.096Z,66.09
2022-09-07T04:41:28.873Z,66.13
2022-09-07T04:43:57.963Z,64.88
2022-09-07T04:46:30.102Z,64.58
2022-09-07T04:49:03.105Z,65.59
2022-09-07T04:51:31.729Z,66.05
2022-09-07T04:53:59.729Z,66.55
2022-09-07T04:56:26.557Z,65.77
2022-09-07T04:58:52.992Z,64.93
2022-09-07T05:01:22.494Z,66.38
2022-09-07T05:03:49.456Z,65.45
2022-09-07T05:06:17.902Z,64.67
2022-09-07T05:08:46.815Z,65.50
2022-09-07T05:11:14.714Z,63.95
2022-09-07T05:14:18.131Z,65.76
2022-09-07T05:24:18.366Z,66.04
2022-09-07T05:34:29.570Z,66.67
2022-09-07T05:36:57.453Z,65.19
2022-09-07T05:40:05.246Z,66.64
2022-09-07T05:42:32.315Z,66.92
2022-09-07T05:44:59.234Z,66.51
2022-09-07T05:47:28.676Z,66.99
2022-09-07T05:57:52.155Z,66.61
2022-09-07T06:00:21.407Z,66.49
2022-09-07T06:02:48.907Z,66.41
2022-09-07T06:05:15.521Z,67.37
2022-09-07T06:07:42.036Z,64.96
2022-09-07T06:12:55.709Z,67.09
2022-09-07T06:15:22.294Z,65.88
2022-09-07T06:17:48.930Z,66.39
2022-09-07T06:20:15.521Z,65.87
2022-09-07T06:22:42.118Z,65.32
2022-09-07T06:25:14.630Z,64.54
2022-09-07T06:27:41.272Z,64.12
2022-09-07T06:30:08.379Z,64.39
2022-09-07T06:32:44.345Z,65.00
2022-09-07T06:35:11.908Z,64.14
2022-09-07T06:37:52.519Z,63.28
2022-09-07T06:40:22.972Z,64.32
2022-09-07T06:42:58.205Z,61.30
2022-09-07T06:45:24.961Z,60.31
2022-09-07T06:47:54.127Z,63.36
2022-09-07T06:50:20.666Z,60.95
2022-09-07T06:59:12.196Z,60.48
2022-09-07T07:01:38.833Z,62.47
2022-09-07T07:04:53.521Z,61.04
2022-09-07T07:07:40.765Z,62.24
2022-09-07T07:10:07.757Z,60.29
2022-09-07T07:12:52.767Z,61.30
2022-09-07T07:15:19.836Z,62.04
2022-09-07T07:17:51.942Z,60.85
2022-09-07T07:20:22.867Z,62.14
2022-09-07T07:22:52.847Z,62.07
2022-09-07T07:25:19.807Z,62.17
2022-09-07T07:27:47.062Z,61.35
2022-09-07T08:04:23.008Z,60.73
2022-09-07T08:10:29.148Z,58.91
2022-09-07T08:13:03.106Z,59.04
2022-09-07T08:15:31.187Z,58.42
2022-09-07T08:21:55.373Z,58.60
2022-09-07T08:24:35.396Z,58.10
2022-09-07T08:27:02.528Z,57.14
2022-09-07T08:38:20.923Z,58.06
2022-09-07T10:52:17.055Z,54.09
2022-09-07T10:55:26.633Z,54.11
2022-09-07T10:59:01.428Z,52.99
2022-09-07T11:01:28.271Z,55.13
2022-09-07T11:04:23.066Z,53.25
2022-09-07T11:11:13.570Z,54.14
2022-09-07T11:20:34.415Z,55.53
2022-09-07T11:23:23.057Z,56.31
2022-09-07T11:26:27.183Z,55.69
2022-09-07T11:29:34.708Z,57.59
2022-09-07T11:32:17.129Z,56.63
2022-09-07T11:35:04.969Z,52.71
2022-09-07T11:37:55.677Z,56.45
2022-09-07T11:40:39.765Z,52.63
2022-09-07T11:43:38.389Z,52.76
2022-09-07T12:13:48.487Z,52.93
2022-09-07T12:45:45.199Z,54.09
2022-09-07T14:01:43.925Z,57.06
2022-09-07T14:08:02.855Z,59.65
2022-09-07T14:10:29.538Z,59.40
2022-09-07T14:13:20.744Z,57.84
2022-09-07T14:15:52.507Z,57.45
2022-09-07T14:18:29.030Z,57.63
2022-09-07T14:20:56.413Z,57.75
2022-09-07T14:23:39.447Z,56.84
2022-09-07T14:26:19.203Z,59.20
2022-09-07T14:28:49.629Z,57.24
2022-09-07T14:31:20.550Z,58.45
2022-09-07T14:33:58.745Z,59.50
2022-09-07T14:36:46.482Z,59.32
2022-09-07T14:39:15.818Z,59.49
2022-09-07T14:41:45.522Z,57.52
2022-09-07T14:44:46.291Z,58.52
2022-09-07T14:47:30.593Z,61.36
2022-09-07T14:50:06.643Z,61.90
2022-09-07T14:52:42.429Z,57.65
2022-09-07T14:55:43.108Z,58.04
2022-09-07T14:58:15.865Z,56.66
2022-09-07T15:04:01.144Z,59.25
2022-09-07T15:09:35.707Z,58.11
2022-09-07T15:12:37.803Z,56.51
2022-09-07T15:15:26.165Z,53.76
2022-09-07T15:18:04.630Z,52.82
2022-09-07T15:20:41.078Z,52.08
2022-09-07T15:23:16.361Z,54.66
2022-09-07T15:29:18.628Z,57.15
2022-09-07T15:31:59.470Z,55.42
2022-09-07T15:34:31.507Z,57.10
2022-09-07T15:37:00.886Z,59.23
2022-09-07T15:40:09.519Z,55.27
2022-09-07T15:46:26.623Z,56.85
2022-09-07T15:49:12.414Z,57.05
2022-09-07T15:52:08.491Z,58.83
2022-09-07T15:54:56.688Z,60.24
2022-09-07T16:50:47.656Z,63.02
2022-09-07T16:54:27.500Z,64.65
2022-09-07T16:56:30.365Z,64.52
2022-09-07T17:11:56.105Z,64.04
2022-09-07T17:14:22.849Z,63.46
2022-09-07T17:16:53.124Z,64.44
2022-09-07T17:19:36.821Z,63.84
2022-09-07T17:22:04.210Z,63.10
2022-09-07T17:24:32.727Z,62.54
2022-09-07T17:29:44.146Z,63.93
2022-09-07T17:32:24.795Z,65.12
2022-09-07T21:34:39.041Z,69.10
2022-09-07T21:37:08.449Z,69.95
2022-09-07T21:39:35.494Z,70.35
2022-09-07T21:42:05.668Z,69.65
2022-09-07T21:44:32.304Z,70.33
2022-09-07T21:46:58.957Z,70.27
2022-09-07T21:49:25.662Z,67.89
2022-09-07T21:51:52.127Z,67.59
2022-09-07T21:54:18.699Z,67.97
2022-09-07T21:56:46.805Z,65.30
2022-09-07T21:59:14.025Z,66.58
2022-09-07T22:01:41.034Z,67.69
2022-09-07T22:04:07.755Z,67.89
2022-09-07T22:06:34.757Z,65.86
2022-09-07T22:09:05.356Z,65.18
2022-09-07T22:11:32.253Z,64.88
2022-09-07T22:14:04.549Z,64.42
2022-09-07T22:16:33.235Z,64.18
2022-09-07T22:19:00.435Z,63.76
2022-09-07T22:21:28.661Z,63.19
2022-09-07T22:24:06.267Z,63.72
2022-09-07T22:26:37.817Z,63.62
2022-09-07T22:29:06.436Z,63.13
2022-09-07T22:31:35.247Z,63.04
2022-09-07T22:34:03.684Z,62.66
2022-09-07T22:36:33.057Z,62.72
2022-09-07T22:39:02.274Z,61.65
2022-09-07T22:41:31.315Z,63.94
2022-09-07T22:43:58.688Z,63.17
2022-09-07T22:46:28.461Z,62.99
2022-09-07T22:48:57.064Z,62.93
2022-09-07T22:51:25.306Z,63.18
2022-09-07T22:53:52.507Z,62.75
2022-09-07T22:56:22.042Z,64.11
2022-09-07T22:58:58.000Z,62.54
2022-09-07T23:01:32.072Z,61.54
2022-09-07T23:04:00.019Z,62.70
2022-09-07T23:06:30.883Z,62.80
2022-09-07T23:08:59.457Z,63.49
2022-09-07T23:11:27.016Z,62.18
2022-09-07T23:13:55.652Z,61.84
2022-09-07T23:16:23.243Z,62.49
2022-09-07T23:18:52.884Z,62.05
2022-09-07T23:21:19.614Z,62.77
2022-09-07T23:23:52.259Z,62.99
2022-09-07T23:26:20.007Z,62.75
2022-09-07T23:28:50.310Z,62.03
2022-09-07T23:31:17.061Z,62.31
2022-09-07T23:33:43.561Z,62.13
2022-09-07T23:36:10.153Z,61.80
2022-09-07T23:38:36.632Z,61.15
2022-09-07T23:41:03.070Z,63.76
2022-09-07T23:43:31.540Z,61.63
2022-09-07T23:45:59.793Z,61.91
2022-09-07T23:48:26.821Z,61.12
2022-09-07T23:50:54.179Z,62.33
2022-09-07T23:53:22.429Z,62.84
2022-09-07T23:55:50.503Z,61.86
2022-09-07T23:58:19.778Z,63.16
